sensor_id;sensor_type;location;lat;lon;timestamp;pressure;altitude;pressure_sealevel;temperature;humidity
27144;BME280;14672;50.250;8.312;2023-01-31T00:01:20;99611.50;;;7.68;65.33
27144;BME280;14672;50.250;8.312;2023-01-31T00:03:47;99615.00;;;7.41;66.25
27144;BME280;14672;50.250;8.312;2023-01-31T00:06:16;99621.72;;;7.54;65.77
27144;BME280;14672;50.250;8.312;2023-01-31T00:08:44;99618.84;;;7.58;65.51
27144;BME280;14672;50.250;8.312;2023-01-31T00:11:11;99614.00;;;7.59;65.37
27144;BME280;14672;50.250;8.312;2023-01-31T00:13:38;99618.06;;;7.57;65.26
27144;BME280;14672;50.250;8.312;2023-01-31T00:16:06;99613.56;;;7.64;64.67
27144;BME280;14672;50.250;8.312;2023-01-31T00:18:32;99623.25;;;7.63;65.06
27144;BME280;14672;50.250;8.312;2023-01-31T00:21:12;99617.91;;;7.72;64.72
27144;BME280;14672;50.250;8.312;2023-01-31T00:23:39;99624.78;;;7.71;65.19
27144;BME280;14672;50.250;8.312;2023-01-31T00:26:23;99614.31;;;7.68;65.38
27144;BME280;14672;50.250;8.312;2023-01-31T00:28:52;99601.75;;;7.69;64.90
27144;BME280;14672;50.250;8.312;2023-01-31T00:31:20;99620.00;;;7.64;65.43
27144;BME280;14672;50.250;8.312;2023-01-31T00:33:47;99625.22;;;7.66;65.14
27144;BME280;14672;50.250;8.312;2023-01-31T00:36:21;99619.97;;;7.68;65.12
27144;BME280;14672;50.250;8.312;2023-01-31T00:38:58;99622.84;;;7.64;65.30
27144;BME280;14672;50.250;8.312;2023-01-31T00:41:28;99625.66;;;7.64;65.00
27144;BME280;14672;50.250;8.312;2023-01-31T00:43:55;99623.25;;;7.63;64.87
27144;BME280;14672;50.250;8.312;2023-01-31T00:46:21;99630.47;;;7.67;64.45
27144;BME280;14672;50.250;8.312;2023-01-31T00:48:51;99620.41;;;7.63;64.61
27144;BME280;14672;50.250;8.312;2023-01-31T00:51:18;99614.34;;;7.64;64.75
27144;BME280;14672;50.250;8.312;2023-01-31T00:53:45;99620.88;;;7.57;65.11
27144;BME280;14672;50.250;8.312;2023-01-31T00:56:14;99618.81;;;7.62;64.70
27144;BME280;14672;50.250;8.312;2023-01-31T00:58:41;99628.94;;;7.59;65.22
27144;BME280;14672;50.250;8.312;2023-01-31T01:01:19;99628.91;;;7.63;65.46
27144;BME280;14672;50.250;8.312;2023-01-31T01:03:47;99619.66;;;7.59;65.18
27144;BME280;14672;50.250;8.312;2023-01-31T01:06:13;99625.31;;;7.59;65.19
27144;BME280;14672;50.250;8.312;2023-01-31T01:08:41;99622.50;;;7.59;65.70
27144;BME280;14672;50.250;8.312;2023-01-31T01:11:25;99621.59;;;7.65;65.46
27144;BME280;14672;50.250;8.312;2023-01-31T01:13:51;99632.50;;;7.67;65.12
27144;BME280;14672;50.250;8.312;2023-01-31T01:16:22;99632.91;;;7.65;65.31
27144;BME280;14672;50.250;8.312;2023-01-31T01:18:48;99637.75;;;7.65;65.12
27144;BME280;14672;50.250;8.312;2023-01-31T01:21:27;99632.03;;;7.72;65.25
27144;BME280;14672;50.250;8.312;2023-01-31T01:23:56;99631.28;;;7.68;65.16
27144;BME280;14672;50.250;8.312;2023-01-31T01:26:29;99640.13;;;7.70;65.07
27144;BME280;14672;50.250;8.312;2023-01-31T01:28:57;99637.75;;;7.68;65.07
27144;BME280;14672;50.250;8.312;2023-01-31T01:31:24;99630.81;;;7.73;65.09
27144;BME280;14672;50.250;8.312;2023-01-31T01:34:07;99627.22;;;7.69;65.16
27144;BME280;14672;50.250;8.312;2023-01-31T01:36:36;99640.13;;;7.70;64.88
27144;BME280;14672;50.250;8.312;2023-01-31T01:39:06;99644.19;;;7.69;64.94
27144;BME280;14672;50.250;8.312;2023-01-31T01:41:33;99631.28;;;7.68;64.75
27144;BME280;14672;50.250;8.312;2023-01-31T01:44:02;99637.34;;;7.66;64.82
27144;BME280;14672;50.250;8.312;2023-01-31T01:46:39;99639.31;;;7.69;64.47
27144;BME280;14672;50.250;8.312;2023-01-31T01:49:33;99637.31;;;7.70;64.90
27144;BME280;14672;50.250;8.312;2023-01-31T01:52:06;99639.41;;;7.62;64.96
27144;BME280;14672;50.250;8.312;2023-01-31T01:54:40;99621.63;;;7.62;64.32
27144;BME280;14672;50.250;8.312;2023-01-31T01:57:10;99631.78;;;7.59;64.12
27144;BME280;14672;50.250;8.312;2023-01-31T01:59:54;99642.69;;;7.57;64.83
27144;BME280;14672;50.250;8.312;2023-01-31T02:02:24;99638.72;;;7.51;64.33
27144;BME280;14672;50.250;8.312;2023-01-31T02:04:51;99633.19;;;7.40;64.77
27144;BME280;14672;50.250;8.312;2023-01-31T02:07:17;99642.00;;;7.46;64.54
27144;BME280;14672;50.250;8.312;2023-01-31T02:10:05;99637.16;;;7.46;64.37
27144;BME280;14672;50.250;8.312;2023-01-31T02:12:33;99641.19;;;7.45;64.27
27144;BME280;14672;50.250;8.312;2023-01-31T02:15:00;99634.81;;;7.38;64.47
27144;BME280;14672;50.250;8.312;2023-01-31T02:17:26;99628.31;;;7.41;64.20
27144;BME280;14672;50.250;8.312;2023-01-31T02:32:40;99626.00;;;7.32;64.36
27144;BME280;14672;50.250;8.312;2023-01-31T02:51:13;99622.84;;;7.23;64.15
27144;BME280;14672;50.250;8.312;2023-01-31T02:54:21;99631.34;;;7.23;64.17
27144;BME280;14672;50.250;8.312;2023-01-31T02:57:27;99628.66;;;7.05;64.69
27144;BME280;14672;50.250;8.312;2023-01-31T03:00:12;99641.06;;;7.19;64.83
27144;BME280;14672;50.250;8.312;2023-01-31T03:02:57;99647.91;;;7.18;64.62
27144;BME280;14672;50.250;8.312;2023-01-31T03:05:41;99641.38;;;7.28;64.29
27144;BME280;14672;50.250;8.312;2023-01-31T03:08:26;99653.91;;;7.27;64.37
27144;BME280;14672;50.250;8.312;2023-01-31T03:11:10;99665.16;;;7.30;64.40
27144;BME280;14672;50.250;8.312;2023-01-31T03:14:29;99669.56;;;7.35;64.85
27144;BME280;14672;50.250;8.312;2023-01-31T03:17:26;99660.69;;;7.33;64.38
27144;BME280;14672;50.250;8.312;2023-01-31T03:20:37;99660.69;;;7.36;64.25
27144;BME280;14672;50.250;8.312;2023-01-31T03:23:28;99667.13;;;7.40;64.03
27144;BME280;14672;50.250;8.312;2023-01-31T03:26:00;99661.84;;;7.42;63.83
27144;BME280;14672;50.250;8.312;2023-01-31T03:28:31;99656.63;;;7.37;63.84
27144;BME280;14672;50.250;8.312;2023-01-31T03:31:52;99667.13;;;7.40;63.39
27144;BME280;14672;50.250;8.312;2023-01-31T03:34:02;99669.47;;;7.45;63.54
27144;BME280;14672;50.250;8.312;2023-01-31T03:39:36;99673.84;;;7.53;62.89
27144;BME280;14672;50.250;8.312;2023-01-31T03:47:39;99658.53;;;7.51;62.50
27144;BME280;14672;50.250;8.312;2023-01-31T03:50:30;99669.44;;;7.49;62.19
27144;BME280;14672;50.250;8.312;2023-01-31T03:55:41;99671.13;;;7.43;62.31
27144;BME280;14672;50.250;8.312;2023-01-31T03:58:10;99666.31;;;7.40;62.59
27144;BME280;14672;50.250;8.312;2023-01-31T04:00:41;99658.16;;;7.45;62.10
27144;BME280;14672;50.250;8.312;2023-01-31T04:03:35;99665.94;;;7.34;62.36
27144;BME280;14672;50.250;8.312;2023-01-31T04:06:02;99669.53;;;7.38;62.08
27144;BME280;14672;50.250;8.312;2023-01-31T04:08:27;99672.78;;;7.40;61.91
27144;BME280;14672;50.250;8.312;2023-01-31T04:10:57;99675.28;;;7.31;61.97
27144;BME280;14672;50.250;8.312;2023-01-31T04:13:24;99664.72;;;7.35;62.17
27144;BME280;14672;50.250;8.312;2023-01-31T04:15:50;99663.13;;;7.34;61.82
27144;BME280;14672;50.250;8.312;2023-01-31T04:18:15;99650.91;;;7.44;61.49
27144;BME280;14672;50.250;8.312;2023-01-31T04:20:41;99650.16;;;7.40;61.37
27144;BME280;14672;50.250;8.312;2023-01-31T04:23:07;99645.25;;;7.44;61.47
27144;BME280;14672;50.250;8.312;2023-01-31T04:25:33;99638.03;;;7.40;61.98
27144;BME280;14672;50.250;8.312;2023-01-31T04:27:58;99649.72;;;7.42;61.68
27144;BME280;14672;50.250;8.312;2023-01-31T04:30:24;99643.69;;;7.40;61.80
27144;BME280;14672;50.250;8.312;2023-01-31T04:32:50;99634.84;;;7.34;61.83
27144;BME280;14672;50.250;8.312;2023-01-31T04:35:15;99639.72;;;7.30;61.84
27144;BME280;14672;50.250;8.312;2023-01-31T04:37:41;99637.34;;;7.25;61.95
27144;BME280;14672;50.250;8.312;2023-01-31T04:40:08;99632.50;;;7.26;61.70
27144;BME280;14672;50.250;8.312;2023-01-31T04:42:34;99632.56;;;7.19;61.81
27144;BME280;14672;50.250;8.312;2023-01-31T04:44:59;99639.47;;;7.14;61.90
27144;BME280;14672;50.250;8.312;2023-01-31T04:47:25;99627.03;;;7.08;62.14
27144;BME280;14672;50.250;8.312;2023-01-31T04:49:51;99626.69;;;6.99;62.16
27144;BME280;14672;50.250;8.312;2023-01-31T04:52:17;99620.66;;;6.97;61.97
27144;BME280;14672;50.250;8.312;2023-01-31T04:54:42;99629.63;;;6.88;62.03
27144;BME280;14672;50.250;8.312;2023-01-31T04:57:08;99628.84;;;6.84;62.21
27144;BME280;14672;50.250;8.312;2023-01-31T04:59:34;99626.78;;;6.85;62.06
27144;BME280;14672;50.250;8.312;2023-01-31T05:02:00;99630.47;;;6.82;61.90
27144;BME280;14672;50.250;8.312;2023-01-31T05:04:25;99622.09;;;6.71;62.08
27144;BME280;14672;50.250;8.312;2023-01-31T05:06:51;99636.22;;;6.68;61.82
27144;BME280;14672;50.250;8.312;2023-01-31T05:09:17;99637.84;;;6.65;62.13
27144;BME280;14672;50.250;8.312;2023-01-31T05:11:43;99633.09;;;6.51;61.92
27144;BME280;14672;50.250;8.312;2023-01-31T05:14:09;99630.72;;;6.46;62.27
27144;BME280;14672;50.250;8.312;2023-01-31T05:16:35;99624.72;;;6.41;62.32
27144;BME280;14672;50.250;8.312;2023-01-31T05:19:01;99623.16;;;6.33;62.47
27144;BME280;14672;50.250;8.312;2023-01-31T05:21:26;99623.16;;;6.29;62.19
27144;BME280;14672;50.250;8.312;2023-01-31T05:23:52;99624.91;;;6.09;62.29
27144;BME280;14672;50.250;8.312;2023-01-31T05:26:18;99623.63;;;6.17;62.81
27144;BME280;14672;50.250;8.312;2023-01-31T05:28:44;99629.72;;;6.12;62.21
27144;BME280;14672;50.250;8.312;2023-01-31T05:31:09;99625.28;;;6.11;62.21
27144;BME280;14672;50.250;8.312;2023-01-31T05:33:37;99620.84;;;6.10;62.77
27144;BME280;14672;50.250;8.312;2023-01-31T05:36:04;99616.44;;;6.02;62.95
27144;BME280;14672;50.250;8.312;2023-01-31T05:38:30;99614.88;;;5.94;62.49
27144;BME280;14672;50.250;8.312;2023-01-31T05:40:55;99605.19;;;5.98;62.22
27144;BME280;14672;50.250;8.312;2023-01-31T05:43:21;99615.28;;;5.96;62.16
27144;BME280;14672;50.250;8.312;2023-01-31T05:45:48;99616.47;;;5.95;62.57
27144;BME280;14672;50.250;8.312;2023-01-31T05:48:14;99623.75;;;5.82;62.17
27144;BME280;14672;50.250;8.312;2023-01-31T05:50:40;99620.97;;;5.71;63.10
27144;BME280;14672;50.250;8.312;2023-01-31T05:53:05;99611.25;;;5.93;62.79
27144;BME280;14672;50.250;8.312;2023-01-31T05:55:31;99620.53;;;5.90;62.89
27144;BME280;14672;50.250;8.312;2023-01-31T05:57:57;99617.31;;;5.92;62.98
27144;BME280;14672;50.250;8.312;2023-01-31T06:00:25;99620.94;;;5.89;63.20
27144;BME280;14672;50.250;8.312;2023-01-31T06:02:51;99621.34;;;5.87;62.78
27144;BME280;14672;50.250;8.312;2023-01-31T06:05:17;99611.66;;;5.85;63.68
27144;BME280;14672;50.250;8.312;2023-01-31T06:07:43;99622.94;;;5.92;63.13
27144;BME280;14672;50.250;8.312;2023-01-31T06:10:11;99613.25;;;6.00;63.95
27144;BME280;14672;50.250;8.312;2023-01-31T06:12:36;99626.09;;;6.08;63.75
27144;BME280;14672;50.250;8.312;2023-01-31T06:15:03;99616.38;;;6.20;63.28
27144;BME280;14672;50.250;8.312;2023-01-31T06:17:29;99615.13;;;6.24;63.75
27144;BME280;14672;50.250;8.312;2023-01-31T06:19:55;99619.56;;;6.22;63.87
27144;BME280;14672;50.250;8.312;2023-01-31T06:22:21;99626.44;;;6.17;63.95
27144;BME280;14672;50.250;8.312;2023-01-31T06:24:46;99621.19;;;6.23;63.92
27144;BME280;14672;50.250;8.312;2023-01-31T06:27:12;99625.16;;;6.32;63.37
27144;BME280;14672;50.250;8.312;2023-01-31T06:29:38;99625.13;;;6.39;63.14
27144;BME280;14672;50.250;8.312;2023-01-31T06:32:04;99625.13;;;6.39;62.97
27144;BME280;14672;50.250;8.312;2023-01-31T06:34:30;99625.09;;;6.43;62.94
27144;BME280;14672;50.250;8.312;2023-01-31T06:36:56;99626.66;;;6.51;62.90
27144;BME280;14672;50.250;8.312;2023-01-31T06:39:23;99628.28;;;6.52;62.47
27144;BME280;14672;50.250;8.312;2023-01-31T06:41:49;99632.25;;;6.58;62.53
27144;BME280;14672;50.250;8.312;2023-01-31T06:44:15;99634.78;;;6.42;62.87
27144;BME280;14672;50.250;8.312;2023-01-31T06:46:40;99639.59;;;6.45;62.56
27144;BME280;14672;50.250;8.312;2023-01-31T06:49:06;99646.03;;;6.45;63.00
27144;BME280;14672;50.250;8.312;2023-01-31T06:51:33;99643.22;;;6.45;62.87
27144;BME280;14672;50.250;8.312;2023-01-31T06:53:59;99654.09;;;6.47;62.84
27144;BME280;14672;50.250;8.312;2023-01-31T06:56:24;99641.16;;;6.53;62.92
27144;BME280;14672;50.250;8.312;2023-01-31T06:58:50;99643.16;;;6.56;62.59
27144;BME280;14672;50.250;8.312;2023-01-31T07:01:16;99645.63;;;6.47;63.22
27144;BME280;14672;50.250;8.312;2023-01-31T07:03:43;99639.19;;;6.46;63.42
27144;BME280;14672;50.250;8.312;2023-01-31T07:06:09;99644.78;;;6.53;62.88
27144;BME280;14672;50.250;8.312;2023-01-31T07:08:35;99640.31;;;6.59;62.76
27144;BME280;14672;50.250;8.312;2023-01-31T07:11:02;99645.22;;;6.52;62.46
27144;BME280;14672;50.250;8.312;2023-01-31T07:13:29;99644.34;;;6.58;62.45
27144;BME280;14672;50.250;8.312;2023-01-31T07:15:56;99649.19;;;6.58;62.48
27144;BME280;14672;50.250;8.312;2023-01-31T07:18:22;99656.38;;;6.66;62.27
27144;BME280;14672;50.250;8.312;2023-01-31T07:20:49;99650.88;;;6.48;62.58
27144;BME280;14672;50.250;8.312;2023-01-31T07:23:15;99650.00;;;6.58;62.01
27144;BME280;14672;50.250;8.312;2023-01-31T07:25:41;99651.19;;;6.57;62.23
27144;BME280;14672;50.250;8.312;2023-01-31T07:28:07;99653.22;;;6.60;62.21
27144;BME280;14672;50.250;8.312;2023-01-31T07:30:32;99655.16;;;6.71;61.91
27144;BME280;14672;50.250;8.312;2023-01-31T07:32:59;99652.31;;;6.74;62.26
27144;BME280;14672;50.250;8.312;2023-01-31T07:35:25;99652.31;;;6.74;62.13
27144;BME280;14672;50.250;8.312;2023-01-31T07:37:51;99646.63;;;6.78;62.34
27144;BME280;14672;50.250;8.312;2023-01-31T07:40:17;99647.47;;;6.75;62.46
27144;BME280;14672;50.250;8.312;2023-01-31T07:42:43;99647.44;;;6.78;62.69
27144;BME280;14672;50.250;8.312;2023-01-31T07:45:15;99637.72;;;6.83;62.30
27144;BME280;14672;50.250;8.312;2023-01-31T07:47:40;99631.22;;;6.86;62.01
27144;BME280;14672;50.250;8.312;2023-01-31T07:50:08;99640.13;;;6.88;62.53
27144;BME280;14672;50.250;8.312;2023-01-31T07:52:34;99631.66;;;6.84;62.87
27144;BME280;14672;50.250;8.312;2023-01-31T07:55:00;99639.34;;;6.84;62.38
27144;BME280;14672;50.250;8.312;2023-01-31T07:57:26;99631.22;;;6.86;62.30
27144;BME280;14672;50.250;8.312;2023-01-31T07:59:51;99631.66;;;6.84;62.37
27144;BME280;14672;50.250;8.312;2023-01-31T08:02:17;99633.59;;;6.94;62.21
27144;BME280;14672;50.250;8.312;2023-01-31T08:05:02;99638.50;;;6.87;62.23
27144;BME280;14672;50.250;8.312;2023-01-31T08:07:28;99639.22;;;6.98;61.73
27144;BME280;14672;50.250;8.312;2023-01-31T08:09:55;99643.63;;;7.02;61.53
27144;BME280;14672;50.250;8.312;2023-01-31T08:12:21;99642.00;;;7.01;61.45
27144;BME280;14672;50.250;8.312;2023-01-31T08:14:47;99652.97;;;6.96;61.65
27144;BME280;14672;50.250;8.312;2023-01-31T08:17:12;99649.34;;;6.95;61.56
27144;BME280;14672;50.250;8.312;2023-01-31T08:19:38;99644.00;;;7.08;61.33
27144;BME280;14672;50.250;8.312;2023-01-31T08:22:04;99648.00;;;7.11;60.98
27144;BME280;14672;50.250;8.312;2023-01-31T08:24:31;99658.63;;;6.96;61.32
27144;BME280;14672;50.250;8.312;2023-01-31T08:26:58;99641.16;;;7.08;61.01
27144;BME280;14672;50.250;8.312;2023-01-31T08:29:25;99637.94;;;7.06;61.30
27144;BME280;14672;50.250;8.312;2023-01-31T08:31:51;99644.00;;;7.08;61.17
27144;BME280;14672;50.250;8.312;2023-01-31T08:34:18;99642.78;;;7.05;61.09
27144;BME280;14672;50.250;8.312;2023-01-31T08:36:44;99635.09;;;7.06;61.09
27144;BME280;14672;50.250;8.312;2023-01-31T08:39:10;99622.44;;;7.21;60.67
27144;BME280;14672;50.250;8.312;2023-01-31T08:41:37;99622.63;;;7.03;60.97
27144;BME280;14672;50.250;8.312;2023-01-31T08:44:05;99617.25;;;7.20;60.95
27144;BME280;14672;50.250;8.312;2023-01-31T08:46:34;99616.34;;;7.26;60.32
27144;BME280;14672;50.250;8.312;2023-01-31T08:49:03;99608.28;;;7.28;60.37
27144;BME280;14672;50.250;8.312;2023-01-31T08:51:29;99615.78;;;7.42;60.20
27144;BME280;14672;50.250;8.312;2023-01-31T08:53:55;99618.63;;;7.42;60.07
27144;BME280;14672;50.250;8.312;2023-01-31T08:56:21;99616.91;;;7.51;60.02
27144;BME280;14672;50.250;8.312;2023-01-31T08:58:50;99628.50;;;7.64;59.41
27144;BME280;14672;50.250;8.312;2023-01-31T09:01:19;99625.91;;;7.77;59.22
27144;BME280;14672;50.250;8.312;2023-01-31T09:03:46;99631.66;;;7.70;59.19
27144;BME280;14672;50.250;8.312;2023-01-31T09:06:20;99637.66;;;7.75;59.11
27144;BME280;14672;50.250;8.312;2023-01-31T09:08:47;99646.31;;;7.95;58.85
27144;BME280;14672;50.250;8.312;2023-01-31T09:11:14;99642.63;;;7.98;58.88
27144;BME280;14672;50.250;8.312;2023-01-31T09:13:42;99643.78;;;8.04;58.81
27144;BME280;14672;50.250;8.312;2023-01-31T09:16:10;99650.38;;;8.24;57.57
27144;BME280;14672;50.250;8.312;2023-01-31T09:18:38;99638.69;;;8.22;58.50
27144;BME280;14672;50.250;8.312;2023-01-31T09:21:11;99650.78;;;9.33;56.97
27144;BME280;14672;50.250;8.312;2023-01-31T09:23:39;99661.78;;;9.05;56.29
27144;BME280;14672;50.250;8.312;2023-01-31T09:26:06;99630.75;;;8.71;57.41
27144;BME280;14672;50.250;8.312;2023-01-31T09:28:32;99652.09;;;8.48;58.24
27144;BME280;14672;50.250;8.312;2023-01-31T09:31:07;99649.03;;;8.39;58.43
27144;BME280;14672;50.250;8.312;2023-01-31T09:33:34;99632.03;;;8.39;58.36
27144;BME280;14672;50.250;8.312;2023-01-31T09:36:13;99616.78;;;8.30;58.57
27144;BME280;14672;50.250;8.312;2023-01-31T09:38:39;99600.72;;;8.20;58.65
27144;BME280;14672;50.250;8.312;2023-01-31T09:43:55;99612.06;;;8.20;58.61
27144;BME280;14672;50.250;8.312;2023-01-31T09:46:31;99610.72;;;8.28;58.47
27144;BME280;14672;50.250;8.312;2023-01-31T09:49:02;99610.75;;;8.24;58.62
27144;BME280;14672;50.250;8.312;2023-01-31T09:51:33;99603.91;;;8.22;58.63
27144;BME280;14672;50.250;8.312;2023-01-31T09:54:01;99612.28;;;8.02;59.37
27144;BME280;14672;50.250;8.312;2023-01-31T09:57:06;99611.75;;;8.11;58.90
27144;BME280;14672;50.250;8.312;2023-01-31T10:09:06;99629.66;;;7.67;59.98
27144;BME280;14672;50.250;8.312;2023-01-31T10:11:46;99607.16;;;7.90;59.54
27144;BME280;14672;50.250;8.312;2023-01-31T10:14:33;99598.50;;;8.04;59.50
27144;BME280;14672;50.250;8.312;2023-01-31T10:17:23;99602.47;;;8.10;59.45
27144;BME280;14672;50.250;8.312;2023-01-31T10:22:39;99617.06;;;8.05;59.35
27144;BME280;14672;50.250;8.312;2023-01-31T10:25:36;99613.25;;;7.88;60.03
27144;BME280;14672;50.250;8.312;2023-01-31T10:28:12;99598.50;;;8.04;59.73
27144;BME280;14672;50.250;8.312;2023-01-31T10:33:51;99589.59;;;8.06;59.81
27144;BME280;14672;50.250;8.312;2023-01-31T10:39:02;99581.19;;;7.98;59.49
27144;BME280;14672;50.250;8.312;2023-01-31T10:42:25;99578.50;;;7.88;59.79
27144;BME280;14672;50.250;8.312;2023-01-31T10:47:52;99576.06;;;7.90;59.73
27144;BME280;14672;50.250;8.312;2023-01-31T10:50:37;99578.31;;;8.02;59.44
27144;BME280;14672;50.250;8.312;2023-01-31T10:53:53;99564.59;;;8.00;59.36
27144;BME280;14672;50.250;8.312;2023-01-31T10:56:36;99549.38;;;7.91;59.77
27144;BME280;14672;50.250;8.312;2023-01-31T10:59:36;99537.75;;;8.12;59.94
27144;BME280;14672;50.250;8.312;2023-01-31T11:02:03;99538.53;;;7.86;60.05
27144;BME280;14672;50.250;8.312;2023-01-31T11:04:40;99533.44;;;8.04;59.71
27144;BME280;14672;50.250;8.312;2023-01-31T11:07:07;99520.50;;;8.03;59.97
27144;BME280;14672;50.250;8.312;2023-01-31T11:09:42;99520.88;;;8.05;59.75
27144;BME280;14672;50.250;8.312;2023-01-31T11:12:11;99533.09;;;7.98;59.88
27144;BME280;14672;50.250;8.312;2023-01-31T11:14:37;99529.00;;;8.03;60.01
27144;BME280;14672;50.250;8.312;2023-01-31T11:17:17;99523.81;;;7.98;59.70
27144;BME280;14672;50.250;8.312;2023-01-31T11:19:51;99510.63;;;7.88;59.69
27144;BME280;14672;50.250;8.312;2023-01-31T11:22:31;99522.19;;;7.97;59.93
27144;BME280;14672;50.250;8.312;2023-01-31T11:25:00;99515.59;;;8.07;59.36
27144;BME280;14672;50.250;8.312;2023-01-31T11:27:38;99510.41;;;8.02;59.50
27144;BME280;14672;50.250;8.312;2023-01-31T11:30:17;99493.84;;;8.00;59.64
27144;BME280;14672;50.250;8.312;2023-01-31T11:32:45;99501.59;;;7.96;59.88
27144;BME280;14672;50.250;8.312;2023-01-31T11:37:52;99474.16;;;7.93;59.60
27144;BME280;14672;50.250;8.312;2023-01-31T11:40:28;99482.53;;;8.00;59.92
27144;BME280;14672;50.250;8.312;2023-01-31T11:42:58;99463.44;;;8.08;59.44
27144;BME280;14672;50.250;8.312;2023-01-31T11:45:33;99464.28;;;8.05;59.67
27144;BME280;14672;50.250;8.312;2023-01-31T11:50:59;99443.94;;;8.14;59.61
27144;BME280;14672;50.250;8.312;2023-01-31T11:53:47;99448.03;;;8.09;59.37
27144;BME280;14672;50.250;8.312;2023-01-31T11:56:26;99444.84;;;8.07;59.54
27144;BME280;14672;50.250;8.312;2023-01-31T11:58:56;99453.97;;;8.18;59.46
27144;BME280;14672;50.250;8.312;2023-01-31T12:01:24;99459.50;;;8.25;59.63
27144;BME280;14672;50.250;8.312;2023-01-31T12:04:00;99456.81;;;8.18;59.85
27144;BME280;14672;50.250;8.312;2023-01-31T12:06:40;99432.81;;;8.26;59.22
27144;BME280;14672;50.250;8.312;2023-01-31T12:09:23;99416.25;;;8.25;59.06
27144;BME280;14672;50.250;8.312;2023-01-31T12:11:59;99416.97;;;8.32;59.55
27144;BME280;14672;50.250;8.312;2023-01-31T12:14:39;99416.25;;;8.25;59.09
27144;BME280;14672;50.250;8.312;2023-01-31T12:17:11;99416.47;;;8.37;59.25
27144;BME280;14672;50.250;8.312;2023-01-31T12:22:34;99414.59;;;8.27;59.43
27144;BME280;14672;50.250;8.312;2023-01-31T12:25:21;99392.44;;;8.22;59.86
27144;BME280;14672;50.250;8.312;2023-01-31T12:40:02;99388.97;;;8.38;60.01
27144;BME280;14672;50.250;8.312;2023-01-31T12:46:02;99379.59;;;8.41;59.64
27144;BME280;14672;50.250;8.312;2023-01-31T13:00:26;99362.41;;;8.32;60.48
27144;BME280;14672;50.250;8.312;2023-01-31T13:04:11;99352.09;;;8.41;60.39
27144;BME280;14672;50.250;8.312;2023-01-31T13:06:22;99336.84;;;8.35;60.53
27144;BME280;14672;50.250;8.312;2023-01-31T13:08:56;99325.38;;;8.42;60.37
27144;BME280;14672;50.250;8.312;2023-01-31T13:11:42;99316.91;;;8.42;60.56
27144;BME280;14672;50.250;8.312;2023-01-31T13:14:20;99316.59;;;8.37;60.93
27144;BME280;14672;50.250;8.312;2023-01-31T13:16:55;99311.81;;;8.54;61.25
27144;BME280;14672;50.250;8.312;2023-01-31T13:19:48;99315.16;;;8.48;61.33
27144;BME280;14672;50.250;8.312;2023-01-31T13:22:44;99310.59;;;8.55;61.77
27144;BME280;14672;50.250;8.312;2023-01-31T13:25:23;99309.88;;;8.51;61.71
27144;BME280;14672;50.250;8.312;2023-01-31T13:28:08;99317.97;;;8.48;61.72
27144;BME280;14672;50.250;8.312;2023-01-31T13:30:57;99312.31;;;8.48;61.39
27144;BME280;14672;50.250;8.312;2023-01-31T13:33:53;99315.44;;;8.54;61.34
27144;BME280;14672;50.250;8.312;2023-01-31T13:36:31;99318.78;;;8.49;61.46
27144;BME280;14672;50.250;8.312;2023-01-31T13:39:07;99298.25;;;8.65;61.08
27144;BME280;14672;50.250;8.312;2023-01-31T13:41:38;99302.75;;;8.62;60.88
27144;BME280;14672;50.250;8.312;2023-01-31T13:44:05;99313.50;;;8.51;61.53
27144;BME280;14672;50.250;8.312;2023-01-31T13:46:57;99299.28;;;8.55;61.72
27144;BME280;14672;50.250;8.312;2023-01-31T13:52:20;99304.78;;;8.62;61.67
27144;BME280;14672;50.250;8.312;2023-01-31T13:55:18;99305.66;;;8.59;62.42
27144;BME280;14672;50.250;8.312;2023-01-31T13:57:56;99309.72;;;8.58;62.44
27144;BME280;14672;50.250;8.312;2023-01-31T14:00:46;99306.38;;;8.43;63.30
27144;BME280;14672;50.250;8.312;2023-01-31T14:03:19;99308.00;;;8.64;62.61
27144;BME280;14672;50.250;8.312;2023-01-31T14:08:56;99290.84;;;8.71;62.78
27144;BME280;14672;50.250;8.312;2023-01-31T14:16:38;99308.03;;;8.60;63.17
27144;BME280;14672;50.250;8.312;2023-01-31T14:22:02;99305.19;;;8.80;62.62
27144;BME280;14672;50.250;8.312;2023-01-31T14:30:08;99310.53;;;8.78;63.11
27144;BME280;14672;50.250;8.312;2023-01-31T14:35:42;99293.88;;;8.80;63.43
27144;BME280;14672;50.250;8.312;2023-01-31T14:58:02;99294.03;;;8.73;63.38
27144;BME280;14672;50.250;8.312;2023-01-31T15:00:37;99301.16;;;8.81;63.51
27144;BME280;14672;50.250;8.312;2023-01-31T15:05:51;99295.78;;;8.67;63.45
27144;BME280;14672;50.250;8.312;2023-01-31T15:11:13;99278.63;;;8.74;63.28
27144;BME280;14672;50.250;8.312;2023-01-31T15:13:56;99292.22;;;8.82;63.58
27144;BME280;14672;50.250;8.312;2023-01-31T15:16:34;99290.38;;;8.92;63.31
27144;BME280;14672;50.250;8.312;2023-01-31T15:19:16;99277.25;;;8.82;63.39
27144;BME280;14672;50.250;8.312;2023-01-31T15:21:49;99282.41;;;8.87;62.94
27144;BME280;14672;50.250;8.312;2023-01-31T15:24:43;99285.00;;;8.98;62.70
27144;BME280;14672;50.250;8.312;2023-01-31T15:27:25;99293.44;;;9.01;62.98
27144;BME280;14672;50.250;8.312;2023-01-31T15:30:04;99296.03;;;8.92;63.21
27144;BME280;14672;50.250;8.312;2023-01-31T15:35:34;99297.56;;;8.96;62.66
27144;BME280;14672;50.250;8.312;2023-01-31T15:38:32;99293.44;;;9.01;62.90
27144;BME280;14672;50.250;8.312;2023-01-31T15:43:49;99289.16;;;8.93;62.99
27144;BME280;14672;50.250;8.312;2023-01-31T15:46:32;99296.97;;;9.05;62.83
27144;BME280;14672;50.250;8.312;2023-01-31T15:49:00;99291.31;;;9.05;62.67
27144;BME280;14672;50.250;8.312;2023-01-31T15:51:27;99281.78;;;9.15;62.53
27144;BME280;14672;50.250;8.312;2023-01-31T15:54:05;99313.31;;;9.17;62.43
27144;BME280;14672;50.250;8.312;2023-01-31T15:56:36;99311.59;;;9.04;62.94
27144;BME280;14672;50.250;8.312;2023-01-31T15:59:11;99309.88;;;8.90;63.68
27144;BME280;14672;50.250;8.312;2023-01-31T16:01:38;99308.63;;;9.11;62.88
27144;BME280;14672;50.250;8.312;2023-01-31T16:04:04;99312.53;;;8.97;63.12
27144;BME280;14672;50.250;8.312;2023-01-31T16:06:34;99312.19;;;8.95;63.38
27144;BME280;14672;50.250;8.312;2023-01-31T16:09:04;99310.19;;;9.12;63.14
27144;BME280;14672;50.250;8.312;2023-01-31T16:11:33;99325.81;;;9.00;63.67